Time;durP1;ratioP1;P1;durP2;ratioP2;P2;SDS_P1;SDS_P2;PMS_P1;PMS_P2;Temp;Humidity;BMP_temperature;BMP_pressure;BME280_temperature;BME280_humidity;BME280_pressure;Samples;Min_cycle;Max_cycle;Signal;HPM_P1;HPM_P2
2023/02/11 00:00:03;;;;;;;3.58;3.20;;;;;;;;;;4507007;28;20049;-60
2023/02/11 00:02:15;;;;;;;4.93;4.53;;;;;;;;;;4507751;28;20581;-60
2023/02/11 00:04:25;;;;;;;5.68;5.00;;;;;;;;;;4516516;28;20041;-60
2023/02/11 00:06:35;;;;;;;6.10;5.50;;;;;;;;;;4508993;28;20037;-59
2023/02/11 00:08:46;;;;;;;6.25;5.65;;;;;;;;;;4507380;28;20029;-59
2023/02/11 00:10:57;;;;;;;6.00;5.40;;;;;;;;;;4512419;28;20033;-60
2023/02/11 00:13:07;;;;;;;5.90;5.18;;;;;;;;;;4507130;28;20091;-60
2023/02/11 00:15:17;;;;;;;5.65;5.15;;;;;;;;;;4509428;28;20732;-59
2023/02/11 00:17:27;;;;;;;5.78;5.28;;;;;;;;;;4509457;28;20038;-60
2023/02/11 00:19:38;;;;;;;4.03;3.50;;;;;;;;;;4506221;28;20053;-60
2023/02/11 00:21:49;;;;;;;5.88;5.00;;;;;;;;;;4506799;28;20072;-60
2023/02/11 00:24:01;;;;;;;5.25;4.75;;;;;;;;;;4504894;28;20026;-60
2023/02/11 00:26:12;;;;;;;5.63;5.07;;;;;;;;;;4505546;28;20042;-60
2023/02/11 00:28:23;;;;;;;5.70;5.00;;;;;;;;;;4506462;28;20034;-60
2023/02/11 00:30:34;;;;;;;6.22;5.40;;;;;;;;;;4516420;28;21085;-60
2023/02/11 00:32:44;;;;;;;5.03;4.53;;;;;;;;;;4508000;28;20291;-60
2023/02/11 00:34:55;;;;;;;5.57;4.85;;;;;;;;;;4505997;28;20037;-60
2023/02/11 00:37:05;;;;;;;5.20;4.70;;;;;;;;;;4506765;28;20426;-60
2023/02/11 00:39:17;;;;;;;5.95;5.30;;;;;;;;;;4515313;28;20893;-60
2023/02/11 00:41:27;;;;;;;5.15;4.65;;;;;;;;;;4507441;28;20038;-60
2023/02/11 00:43:38;;;;;;;5.20;4.70;;;;;;;;;;4516537;28;20068;-60
2023/02/11 00:45:48;;;;;;;5.30;4.80;;;;;;;;;;4507975;28;20045;-60
2023/02/11 00:47:58;;;;;;;5.13;4.40;;;;;;;;;;4507333;28;20053;-60
2023/02/11 00:50:11;;;;;;;5.85;4.75;;;;;;;;;;4507253;28;20097;-60
2023/02/11 00:52:21;;;;;;;5.18;4.68;;;;;;;;;;4508168;28;20135;-60
2023/02/11 00:54:31;;;;;;;5.38;4.88;;;;;;;;;;4514141;28;20354;-59
2023/02/11 00:56:42;;;;;;;5.25;4.60;;;;;;;;;;4508351;28;20045;-61
2023/02/11 00:58:52;;;;;;;5.25;4.75;;;;;;;;;;4506054;28;20060;-60
2023/02/11 01:01:03;;;;;;;5.25;4.75;;;;;;;;;;4506268;28;20084;-60
2023/02/11 01:03:14;;;;;;;5.20;4.60;;;;;;;;;;4505873;28;20089;-59
2023/02/11 01:05:24;;;;;;;5.53;5.00;;;;;;;;;;4508740;28;20557;-59
2023/02/11 01:07:34;;;;;;;5.50;4.55;;;;;;;;;;4507800;28;20099;-60
2023/02/11 01:09:45;;;;;;;5.05;4.55;;;;;;;;;;4504877;28;20036;-60
2023/02/11 01:11:55;;;;;;;5.45;4.88;;;;;;;;;;4510446;28;20060;-59
2023/02/11 01:14:05;;;;;;;5.00;4.50;;;;;;;;;;4505664;28;20502;-60
2023/02/11 01:16:16;;;;;;;5.40;4.50;;;;;;;;;;4509942;28;20048;-60
2023/02/11 01:18:26;;;;;;;5.55;4.80;;;;;;;;;;4508076;28;20609;-60
2023/02/11 01:20:37;;;;;;;5.43;4.60;;;;;;;;;;4503440;28;20289;-60
2023/02/11 01:22:47;;;;;;;5.00;4.50;;;;;;;;;;4504823;28;20088;-60
2023/02/11 01:24:59;;;;;;;5.20;4.60;;;;;;;;;;4505195;28;20034;-60
2023/02/11 01:27:09;;;;;;;5.78;4.60;;;;;;;;;;4515387;28;20037;-59
2023/02/11 01:29:19;;;;;;;5.32;4.70;;;;;;;;;;4507539;28;20036;-60
2023/02/11 01:31:30;;;;;;;5.20;4.70;;;;;;;;;;4505475;28;20041;-61
2023/02/11 01:33:40;;;;;;;5.28;4.78;;;;;;;;;;4504647;28;20384;-60
2023/02/11 01:35:51;;;;;;;5.75;5.15;;;;;;;;;;4512974;28;20977;-60
2023/02/11 01:38:01;;;;;;;5.25;4.75;;;;;;;;;;4506334;28;20034;-60
2023/02/11 01:40:15;;;;;;;5.30;4.60;;;;;;;;;;4506974;28;20494;-59
2023/02/11 01:42:25;;;;;;;5.80;5.07;;;;;;;;;;4509727;28;20971;-59
2023/02/11 01:44:37;;;;;;;5.20;4.70;;;;;;;;;;4505179;28;20057;-59
2023/02/11 01:46:47;;;;;;;4.88;4.40;;;;;;;;;;4515402;28;20825;-60
2023/02/11 01:49:10;;;;;;;5.63;5.03;;;;;;;;;;4506406;28;20034;-60
2023/02/11 01:51:25;;;;;;;3.38;3.08;;;;;;;;;;4506033;28;20038;-60
2023/02/11 01:58:37;;;;;;;6.07;5.13;;;;;;;;;;4516173;28;20072;-60
2023/02/11 02:00:48;;;;;;;5.30;4.78;;;;;;;;;;4505626;28;20804;-60
2023/02/11 02:03:08;;;;;;;5.90;5.10;;;;;;;;;;4509600;28;20034;-60
2023/02/11 02:05:27;;;;;;;5.35;4.82;;;;;;;;;;4504495;28;20037;-60
2023/02/11 02:07:40;;;;;;;5.22;4.70;;;;;;;;;;4505420;28;20116;-60
2023/02/11 02:09:56;;;;;;;5.70;5.10;;;;;;;;;;4521223;28;20044;-59
2023/02/11 02:12:06;;;;;;;5.73;4.90;;;;;;;;;;4506504;28;20049;-60
2023/02/11 02:14:17;;;;;;;5.80;4.97;;;;;;;;;;4506093;28;20041;-60
2023/02/11 02:16:30;;;;;;;5.30;4.80;;;;;;;;;;4506500;28;20828;-60
2023/02/11 02:18:59;;;;;;;4.15;3.75;;;;;;;;;;4506139;28;20034;-60
2023/02/11 02:21:09;;;;;;;4.72;4.30;;;;;;;;;;4505240;28;20047;-60
2023/02/11 02:23:25;;;;;;;5.30;4.80;;;;;;;;;;4505815;28;20033;-60
2023/02/11 02:25:58;;;;;;;3.55;3.25;;;;;;;;;;4505105;28;20080;-60
2023/02/11 02:28:16;;;;;;;4.25;3.55;;;;;;;;;;4505347;28;20066;-60
2023/02/11 02:30:35;;;;;;;5.20;4.68;;;;;;;;;;4507203;28;20076;-60
2023/02/11 02:32:55;;;;;;;5.07;4.47;;;;;;;;;;4505060;28;20054;-60
2023/02/11 02:35:14;;;;;;;4.78;4.22;;;;;;;;;;4504583;28;20044;-61
2023/02/11 02:37:27;;;;;;;4.25;3.75;;;;;;;;;;4504165;28;21214;-61
2023/02/11 02:39:38;;;;;;;3.75;3.00;;;;;;;;;;4504192;28;20046;-61
2023/02/11 02:41:49;;;;;;;2.90;2.70;;;;;;;;;;4505562;28;20042;-60
2023/02/11 02:43:59;;;;;;;2.40;2.20;;;;;;;;;;4504682;28;20041;-60
2023/02/11 02:46:15;;;;;;;2.00;1.80;;;;;;;;;;4508295;28;20041;-60
2023/02/11 02:48:30;;;;;;;5.05;4.55;;;;;;;;;;4508769;28;20041;-61
2023/02/11 02:50:40;;;;;;;5.18;4.68;;;;;;;;;;4508155;28;20585;-60
2023/02/11 02:52:57;;;;;;;5.22;4.43;;;;;;;;;;4509532;28;20050;-60
2023/02/11 02:55:07;;;;;;;4.35;3.95;;;;;;;;;;4507811;28;20037;-61
2023/02/11 02:57:36;;;;;;;4.00;3.40;;;;;;;;;;4509062;28;20061;-61
2023/02/11 03:00:03;;;;;;;3.58;3.28;;;;;;;;;;4508965;28;20029;-61
2023/02/11 03:02:21;;;;;;;2.83;2.63;;;;;;;;;;4508127;28;20961;-60
2023/02/11 03:04:37;;;;;;;2.30;2.10;;;;;;;;;;4510588;28;20077;-60
2023/02/11 03:06:51;;;;;;;1.70;1.60;;;;;;;;;;4512204;28;20044;-61
2023/02/11 03:09:07;;;;;;;1.50;1.40;;;;;;;;;;4508719;28;20048;-60
2023/02/11 03:11:18;;;;;;;1.70;1.60;;;;;;;;;;4508076;28;20848;-60
2023/02/11 03:13:32;;;;;;;5.07;4.57;;;;;;;;;;4509525;28;20048;-60
2023/02/11 03:15:44;;;;;;;4.20;3.80;;;;;;;;;;4510562;28;20029;-61
2023/02/11 03:17:57;;;;;;;3.70;3.30;;;;;;;;;;4510067;28;20044;-60
2023/02/11 03:20:09;;;;;;;2.60;2.40;;;;;;;;;;4511397;28;20042;-60
2023/02/11 03:22:26;;;;;;;2.35;2.13;;;;;;;;;;4508929;28;21299;-60
2023/02/11 03:24:37;;;;;;;2.03;1.83;;;;;;;;;;4511751;28;20941;-59
2023/02/11 03:26:51;;;;;;;4.25;3.72;;;;;;;;;;4507538;28;20654;-60
2023/02/11 03:29:22;;;;;;;4.50;3.95;;;;;;;;;;4508812;28;20127;-60
2023/02/11 03:31:32;;;;;;;4.80;4.28;;;;;;;;;;4509644;28;20112;-60
2023/02/11 03:34:07;;;;;;;4.40;4.00;;;;;;;;;;4509120;28;20045;-60
2023/02/11 03:36:21;;;;;;;3.53;2.75;;;;;;;;;;4497496;28;20049;-60
2023/02/11 03:38:33;;;;;;;3.25;2.95;;;;;;;;;;4509319;28;20044;-60
2023/02/11 03:40:44;;;;;;;2.60;2.40;;;;;;;;;;4508918;28;20153;-60
2023/02/11 03:43:04;;;;;;;2.10;1.90;;;;;;;;;;4508098;28;20125;-60
2023/02/11 03:45:16;;;;;;;3.55;3.22;;;;;;;;;;4506068;28;20048;-60
2023/02/11 03:47:28;;;;;;;4.15;3.72;;;;;;;;;;4509500;28;20507;-60
2023/02/11 03:49:39;;;;;;;5.40;4.90;;;;;;;;;;4507908;28;20040;-60
2023/02/11 03:51:51;;;;;;;5.13;4.65;;;;;;;;;;4508075;28;20053;-61
2023/02/11 03:54:02;;;;;;;3.90;3.50;;;;;;;;;;4509184;28;20101;-59
2023/02/11 03:56:15;;;;;;;4.72;4.22;;;;;;;;;;4508987;28;20042;-60
2023/02/11 03:58:26;;;;;;;5.20;4.70;;;;;;;;;;4506876;28;20038;-60
2023/02/11 04:00:38;;;;;;;5.20;4.70;;;;;;;;;;4516319;28;20046;-59
2023/02/11 04:02:48;;;;;;;5.00;4.50;;;;;;;;;;4508323;28;20033;-60
2023/02/11 04:04:59;;;;;;;5.38;4.82;;;;;;;;;;4506893;28;20045;-60
2023/02/11 04:07:10;;;;;;;5.10;4.60;;;;;;;;;;4507416;28;20034;-60
2023/02/11 04:09:21;;;;;;;3.97;3.58;;;;;;;;;;4508194;28;20034;-60
2023/02/11 04:11:31;;;;;;;4.75;4.30;;;;;;;;;;4516318;28;20045;-61
2023/02/11 04:13:41;;;;;;;4.07;3.58;;;;;;;;;;4508020;28;20030;-60
2023/02/11 04:15:52;;;;;;;3.50;3.20;;;;;;;;;;4507782;28;20037;-60
2023/02/11 04:18:02;;;;;;;2.80;2.40;;;;;;;;;;4515071;28;20034;-59
2023/02/11 04:20:12;;;;;;;1.90;1.70;;;;;;;;;;4516526;28;20049;-60
2023/02/11 04:22:23;;;;;;;5.20;4.70;;;;;;;;;;4509566;28;20041;-60
2023/02/11 04:24:33;;;;;;;5.00;4.50;;;;;;;;;;4509444;28;20042;-61
2023/02/11 04:26:43;;;;;;;5.68;5.07;;;;;;;;;;4508023;28;20038;-62
2023/02/11 04:28:54;;;;;;;4.82;4.40;;;;;;;;;;4515367;28;20718;-60
2023/02/11 04:31:04;;;;;;;2.85;2.60;;;;;;;;;;4509456;28;20037;-60
2023/02/11 04:33:14;;;;;;;2.67;2.33;;;;;;;;;;4506469;28;20046;-60
2023/02/11 04:35:25;;;;;;;2.28;2.08;;;;;;;;;;4508203;28;20030;-58
2023/02/11 04:37:35;;;;;;;2.78;2.42;;;;;;;;;;4505982;28;20284;-60
2023/02/11 04:39:45;;;;;;;2.10;1.90;;;;;;;;;;4506057;28;20033;-60
2023/02/11 04:41:55;;;;;;;2.08;1.88;;;;;;;;;;4507129;28;20518;-60
2023/02/11 04:44:06;;;;;;;1.80;1.70;;;;;;;;;;4506098;28;20403;-59
2023/02/11 04:46:16;;;;;;;1.10;1.00;;;;;;;;;;4510924;28;20073;-60
2023/02/11 04:48:26;;;;;;;0.85;0.85;;;;;;;;;;4506716;28;20037;-61
2023/02/11 04:50:37;;;;;;;0.95;0.90;;;;;;;;;;4507907;28;20343;-60
2023/02/11 04:52:47;;;;;;;1.10;1.00;;;;;;;;;;4507080;28;20076;-60
2023/02/11 04:54:57;;;;;;;1.35;1.10;;;;;;;;;;4506762;28;20093;-61
2023/02/11 04:57:07;;;;;;;1.30;1.20;;;;;;;;;;4514147;28;20529;-60
2023/02/11 04:59:18;;;;;;;1.17;1.08;;;;;;;;;;4507606;28;20034;-61
2023/02/11 05:01:28;;;;;;;1.38;1.27;;;;;;;;;;4508062;28;20041;-60
2023/02/11 05:03:39;;;;;;;4.95;4.43;;;;;;;;;;4516573;28;20041;-60
2023/02/11 05:05:50;;;;;;;3.58;3.25;;;;;;;;;;4506991;28;20045;-61
2023/02/11 05:08:00;;;;;;;3.83;2.95;;;;;;;;;;4505682;28;20014;-61
2023/02/11 05:10:10;;;;;;;4.70;4.25;;;;;;;;;;4514363;28;20050;-59
2023/02/11 05:12:20;;;;;;;3.22;2.92;;;;;;;;;;4505952;28;20035;-59
2023/02/11 05:14:32;;;;;;;3.25;2.95;;;;;;;;;;4507355;28;20499;-60
2023/02/11 05:16:42;;;;;;;2.97;2.63;;;;;;;;;;4507016;28;20038;-60
2023/02/11 05:18:54;;;;;;;2.78;2.50;;;;;;;;;;4507574;28;20037;-60
2023/02/11 05:21:08;;;;;;;2.38;2.17;;;;;;;;;;4506332;28;20037;-60
2023/02/11 05:23:19;;;;;;;2.00;1.80;;;;;;;;;;4506804;28;20592;-60
2023/02/11 05:25:29;;;;;;;1.30;1.20;;;;;;;;;;4507518;28;20048;-61
2023/02/11 05:27:39;;;;;;;5.30;4.18;;;;;;;;;;4505620;28;20045;-59
2023/02/11 05:29:49;;;;;;;4.25;3.83;;;;;;;;;;4515499;28;20037;-60
2023/02/11 05:32:00;;;;;;;4.60;3.05;;;;;;;;;;4507924;28;20037;-60
2023/02/11 05:34:10;;;;;;;3.05;2.72;;;;;;;;;;4506938;28;20037;-61
2023/02/11 05:36:21;;;;;;;2.40;2.20;;;;;;;;;;4507640;28;20711;-60
2023/02/11 05:38:31;;;;;;;1.98;1.80;;;;;;;;;;4514674;28;20033;-61
2023/02/11 05:40:41;;;;;;;1.35;1.25;;;;;;;;;;4506511;28;20073;-60
2023/02/11 05:42:52;;;;;;;1.10;1.00;;;;;;;;;;4507627;28;20034;-60
2023/02/11 05:45:02;;;;;;;1.20;1.10;;;;;;;;;;4508499;28;20042;-60
2023/02/11 05:47:13;;;;;;;1.00;0.90;;;;;;;;;;4507286;28;20520;-61
2023/02/11 05:49:23;;;;;;;1.20;1.10;;;;;;;;;;4508379;28;20038;-60
2023/02/11 05:51:33;;;;;;;1.20;1.10;;;;;;;;;;4509222;28;20037;-61
2023/02/11 05:53:43;;;;;;;1.10;1.00;;;;;;;;;;4507975;28;20040;-60
2023/02/11 05:55:54;;;;;;;1.00;1.00;;;;;;;;;;4506356;28;20056;-60
2023/02/11 05:58:05;;;;;;;1.00;0.90;;;;;;;;;;4509013;28;20018;-61
2023/02/11 06:00:15;;;;;;;0.80;0.80;;;;;;;;;;4507042;28;20638;-60
2023/02/11 06:02:26;;;;;;;0.80;0.80;;;;;;;;;;4506615;28;20111;-60
2023/02/11 06:04:36;;;;;;;0.80;0.80;;;;;;;;;;4506930;28;20383;-60
2023/02/11 06:06:46;;;;;;;0.90;0.90;;;;;;;;;;4514981;28;20482;-59
2023/02/11 06:08:57;;;;;;;0.90;0.90;;;;;;;;;;4506430;28;20038;-60
2023/02/11 06:11:08;;;;;;;0.85;0.80;;;;;;;;;;4507628;28;20044;-61
2023/02/11 06:13:18;;;;;;;0.80;0.80;;;;;;;;;;4506843;28;20046;-61
2023/02/11 06:15:28;;;;;;;0.70;0.70;;;;;;;;;;4507176;28;21029;-60
2023/02/11 06:17:39;;;;;;;0.80;0.80;;;;;;;;;;4505626;28;20064;-60
2023/02/11 06:19:49;;;;;;;0.80;0.80;;;;;;;;;;4507223;28;20069;-60
2023/02/11 06:21:59;;;;;;;0.82;0.82;;;;;;;;;;4507727;28;20580;-61
2023/02/11 06:24:10;;;;;;;0.80;0.80;;;;;;;;;;4510727;28;20416;-59
2023/02/11 06:26:23;;;;;;;1.50;0.90;;;;;;;;;;4510396;28;20170;-60
2023/02/11 06:28:34;;;;;;;0.80;0.80;;;;;;;;;;4509161;28;20034;-61
2023/02/11 06:30:44;;;;;;;1.50;1.40;;;;;;;;;;4510232;28;20124;-60
2023/02/11 06:32:55;;;;;;;4.93;4.50;;;;;;;;;;4509416;28;20091;-60
2023/02/11 06:35:05;;;;;;;5.07;4.50;;;;;;;;;;4509680;28;20038;-61
2023/02/11 06:37:15;;;;;;;4.03;3.53;;;;;;;;;;4518308;28;20111;-61
2023/02/11 06:39:26;;;;;;;3.47;3.08;;;;;;;;;;4510293;28;20042;-61
2023/02/11 06:41:36;;;;;;;2.38;2.17;;;;;;;;;;4510575;28;21029;-60
2023/02/11 06:43:47;;;;;;;2.78;2.47;;;;;;;;;;4511517;28;20076;-60
2023/02/11 06:45:57;;;;;;;1.95;1.77;;;;;;;;;;4508250;28;20030;-60
2023/02/11 06:48:08;;;;;;;1.40;1.30;;;;;;;;;;4509328;28;20152;-60
2023/02/11 06:50:18;;;;;;;1.10;1.05;;;;;;;;;;4508934;28;20046;-60
2023/02/11 06:52:28;;;;;;;0.90;0.90;;;;;;;;;;4510416;28;20133;-60
2023/02/11 06:54:39;;;;;;;1.00;0.90;;;;;;;;;;4509089;28;20030;-60
2023/02/11 06:56:49;;;;;;;0.80;0.80;;;;;;;;;;4508928;28;20037;-61
2023/02/11 06:58:59;;;;;;;0.65;0.65;;;;;;;;;;4508692;28;20482;-61
2023/02/11 07:01:11;;;;;;;0.80;0.80;;;;;;;;;;4512779;28;20077;-60
2023/02/11 07:03:22;;;;;;;0.70;0.70;;;;;;;;;;4517747;28;21079;-61
2023/02/11 07:05:33;;;;;;;1.20;1.10;;;;;;;;;;4509069;28;20107;-60
2023/02/11 07:07:43;;;;;;;0.98;0.90;;;;;;;;;;4508217;28;20076;-60
2023/02/11 07:09:53;;;;;;;0.90;0.90;;;;;;;;;;4508180;28;20472;-59
2023/02/11 07:12:03;;;;;;;0.90;0.90;;;;;;;;;;4511465;28;20186;-61
2023/02/11 07:14:14;;;;;;;0.60;0.60;;;;;;;;;;4508658;28;20093;-60
2023/02/11 07:16:24;;;;;;;0.63;0.63;;;;;;;;;;4508521;28;20045;-60
2023/02/11 07:18:34;;;;;;;0.60;0.60;;;;;;;;;;4512744;28;20049;-61
2023/02/11 07:20:45;;;;;;;0.73;0.70;;;;;;;;;;4507061;28;20045;-60
2023/02/11 07:22:56;;;;;;;0.93;0.90;;;;;;;;;;4512766;28;20049;-60
2023/02/11 07:25:06;;;;;;;0.80;0.80;;;;;;;;;;4507036;28;20426;-62
2023/02/11 07:27:16;;;;;;;0.65;0.65;;;;;;;;;;4508180;28;20025;-62
2023/02/11 07:29:27;;;;;;;0.80;0.80;;;;;;;;;;4510658;28;20037;-61
2023/02/11 07:31:37;;;;;;;1.00;0.90;;;;;;;;;;4507179;28;20050;-61
2023/02/11 07:33:48;;;;;;;0.80;0.80;;;;;;;;;;4510714;28;20236;-60
2023/02/11 07:36:03;;;;;;;0.77;0.75;;;;;;;;;;4498524;28;20042;-61
2023/02/11 07:38:13;;;;;;;0.60;0.60;;;;;;;;;;4514790;28;20175;-62
2023/02/11 07:40:24;;;;;;;0.70;0.70;;;;;;;;;;4491511;28;20100;-59
2023/02/11 07:42:34;;;;;;;0.60;0.60;;;;;;;;;;4507133;28;20041;-59
2023/02/11 07:44:45;;;;;;;0.60;0.60;;;;;;;;;;4509333;28;20323;-60
2023/02/11 07:46:55;;;;;;;0.90;0.90;;;;;;;;;;4514373;28;20068;-60
2023/02/11 07:49:05;;;;;;;0.77;0.77;;;;;;;;;;4507771;28;20049;-61
2023/02/11 07:51:17;;;;;;;0.75;0.75;;;;;;;;;;4506092;28;20029;-61
2023/02/11 07:53:27;;;;;;;0.80;0.80;;;;;;;;;;4506313;28;20049;-61
2023/02/11 07:55:37;;;;;;;0.68;0.68;;;;;;;;;;4507819;28;20044;-61
2023/02/11 07:57:48;;;;;;;0.65;0.65;;;;;;;;;;4505143;28;20030;-61
2023/02/11 07:59:58;;;;;;;0.80;0.80;;;;;;;;;;4505136;28;20038;-60
2023/02/11 08:02:09;;;;;;;0.68;0.68;;;;;;;;;;4506339;28;20048;-60
2023/02/11 08:04:19;;;;;;;0.68;0.68;;;;;;;;;;4506078;28;20053;-60
2023/02/11 08:06:31;;;;;;;0.80;0.80;;;;;;;;;;4506289;28;20511;-60
2023/02/11 08:08:41;;;;;;;0.77;0.77;;;;;;;;;;4508559;28;20667;-60
2023/02/11 08:10:51;;;;;;;0.80;0.80;;;;;;;;;;4507810;28;20069;-60
2023/02/11 08:13:02;;;;;;;0.80;0.80;;;;;;;;;;4507879;28;20042;-60
2023/02/11 08:15:12;;;;;;;0.65;0.65;;;;;;;;;;4507500;28;20033;-60
2023/02/11 08:17:23;;;;;;;0.80;0.80;;;;;;;;;;4515710;28;20578;-61
2023/02/11 08:19:33;;;;;;;0.75;0.75;;;;;;;;;;4508109;28;20038;-61
2023/02/11 08:21:43;;;;;;;0.70;0.70;;;;;;;;;;4515330;28;20045;-60
2023/02/11 08:23:54;;;;;;;0.60;0.60;;;;;;;;;;4506877;28;20053;-59
2023/02/11 08:26:07;;;;;;;0.80;0.80;;;;;;;;;;4498909;28;20042;-59
2023/02/11 08:28:17;;;;;;;0.65;0.65;;;;;;;;;;4506166;28;20026;-58
2023/02/11 08:30:27;;;;;;;0.60;0.60;;;;;;;;;;4506978;28;20498;-60
2023/02/11 08:32:38;;;;;;;0.70;0.70;;;;;;;;;;4507006;28;20052;-58
2023/02/11 08:34:51;;;;;;;0.70;0.63;;;;;;;;;;4505793;28;20140;-59
2023/02/11 08:37:02;;;;;;;0.57;0.57;;;;;;;;;;4507270;28;20613;-59
2023/02/11 08:39:16;;;;;;;0.77;0.77;;;;;;;;;;4505040;28;20041;-59
2023/02/11 08:41:26;;;;;;;0.80;0.80;;;;;;;;;;4506975;28;20094;-59
2023/02/11 08:43:40;;;;;;;0.60;0.60;;;;;;;;;;4506491;28;20056;-60
2023/02/11 08:45:50;;;;;;;0.68;0.68;;;;;;;;;;4505461;28;20093;-58
2023/02/11 08:48:01;;;;;;;0.60;0.60;;;;;;;;;;4506800;28;20102;-59
2023/02/11 08:50:11;;;;;;;0.60;0.60;;;;;;;;;;4507037;28;20044;-59
2023/02/11 08:52:21;;;;;;;0.60;0.60;;;;;;;;;;4506509;28;20044;-59
2023/02/11 08:54:32;;;;;;;0.60;0.60;;;;;;;;;;4506838;28;20040;-59
2023/02/11 08:56:42;;;;;;;0.70;0.70;;;;;;;;;;4506292;28;20093;-59
2023/02/11 08:58:53;;;;;;;0.80;0.80;;;;;;;;;;4505692;28;20802;-59
2023/02/11 09:01:11;;;;;;;0.80;0.60;;;;;;;;;;4507020;28;20418;-58
2023/02/11 09:03:21;;;;;;;0.70;0.70;;;;;;;;;;4505679;28;20489;-59
2023/02/11 09:05:31;;;;;;;0.70;0.70;;;;;;;;;;4506220;28;20049;-59
2023/02/11 09:07:42;;;;;;;0.80;0.80;;;;;;;;;;4505310;28;20033;-59
2023/02/11 09:09:52;;;;;;;0.68;0.68;;;;;;;;;;4505858;28;20076;-58
2023/02/11 09:12:02;;;;;;;0.75;0.70;;;;;;;;;;4505827;28;20362;-59
2023/02/11 09:14:15;;;;;;;0.68;0.60;;;;;;;;;;4506987;28;20091;-59
2023/02/11 09:16:27;;;;;;;0.70;0.70;;;;;;;;;;4507232;28;20044;-59
2023/02/11 09:18:37;;;;;;;0.70;0.70;;;;;;;;;;4508556;28;20220;-59
2023/02/11 09:20:48;;;;;;;0.63;0.63;;;;;;;;;;4506247;28;20386;-59
2023/02/11 09:22:58;;;;;;;0.75;0.75;;;;;;;;;;4506733;28;20362;-59
2023/02/11 09:25:09;;;;;;;0.70;0.70;;;;;;;;;;4516256;28;20056;-61
2023/02/11 09:27:20;;;;;;;0.70;0.70;;;;;;;;;;4505791;28;20919;-60
2023/02/11 09:29:30;;;;;;;0.80;0.80;;;;;;;;;;4498773;28;20161;-60
2023/02/11 09:31:41;;;;;;;0.70;0.70;;;;;;;;;;4506778;28;20487;-61
2023/02/11 09:33:52;;;;;;;0.60;0.60;;;;;;;;;;4505242;28;20037;-60
2023/02/11 09:36:04;;;;;;;0.90;0.90;;;;;;;;;;4506465;28;20708;-60
2023/02/11 09:38:14;;;;;;;0.90;0.90;;;;;;;;;;4515638;28;20061;-60
2023/02/11 09:40:24;;;;;;;0.70;0.70;;;;;;;;;;4506814;28;20145;-60
2023/02/11 09:42:35;;;;;;;0.50;0.50;;;;;;;;;;4505563;28;20474;-60
2023/02/11 09:44:45;;;;;;;0.75;0.75;;;;;;;;;;4506323;28;20038;-60
2023/02/11 09:47:19;;;;;;;0.60;0.60;;;;;;;;;;4508474;28;20048;-60
2023/02/11 09:49:39;;;;;;;0.60;0.60;;;;;;;;;;4501071;28;21346;-60
2023/02/11 09:52:00;;;;;;;0.90;0.90;;;;;;;;;;4514353;28;20175;-60
2023/02/11 09:54:14;;;;;;;0.77;0.70;;;;;;;;;;4507862;28;20108;-61
2023/02/11 09:56:24;;;;;;;0.80;0.80;;;;;;;;;;4505181;28;20029;-61
2023/02/11 09:58:35;;;;;;;1.10;1.00;;;;;;;;;;4505372;28;20044;-60
2023/02/11 10:00:52;;;;;;;0.77;0.77;;;;;;;;;;4506108;28;21755;-60
2023/02/11 10:03:21;;;;;;;1.13;0.88;;;;;;;;;;4506255;28;20044;-59
2023/02/11 10:05:40;;;;;;;0.80;0.80;;;;;;;;;;4504859;28;20033;-61
2023/02/11 10:08:14;;;;;;;0.80;0.80;;;;;;;;;;4507377;28;20030;-60
2023/02/11 10:10:43;;;;;;;1.00;0.90;;;;;;;;;;4499337;28;20123;-60
2023/02/11 10:13:05;;;;;;;0.77;0.77;;;;;;;;;;4505371;28;20045;-61
2023/02/11 10:15:33;;;;;;;0.82;0.82;;;;;;;;;;4505094;28;20622;-60
2023/02/11 10:18:07;;;;;;;0.80;0.80;;;;;;;;;;4505740;28;20541;-60
2023/02/11 10:20:17;;;;;;;0.93;0.88;;;;;;;;;;4489532;28;20060;-61
2023/02/11 10:22:31;;;;;;;0.85;0.80;;;;;;;;;;4503995;28;20045;-61
2023/02/11 10:24:49;;;;;;;0.77;0.77;;;;;;;;;;4507252;28;20733;-61
2023/02/11 10:27:00;;;;;;;1.20;1.02;;;;;;;;;;4504953;28;20049;-61
2023/02/11 10:29:16;;;;;;;0.77;0.75;;;;;;;;;;4505059;28;20120;-60
2023/02/11 10:31:47;;;;;;;0.98;0.88;;;;;;;;;;4506008;28;20620;-61
2023/02/11 10:34:04;;;;;;;0.80;0.80;;;;;;;;;;4505608;28;20613;-61
2023/02/11 10:36:16;;;;;;;1.10;1.00;;;;;;;;;;4513363;28;21032;-61
2023/02/11 10:38:26;;;;;;;0.80;0.80;;;;;;;;;;4505000;28;20049;-60
2023/02/11 10:40:37;;;;;;;0.95;0.80;;;;;;;;;;4506310;28;20045;-60
2023/02/11 10:42:51;;;;;;;0.80;0.80;;;;;;;;;;4505839;28;20037;-61
2023/02/11 10:45:05;;;;;;;1.00;0.90;;;;;;;;;;4504844;28;20049;-60
2023/02/11 10:47:21;;;;;;;0.90;0.80;;;;;;;;;;4507145;28;20041;-60
2023/02/11 10:49:38;;;;;;;0.80;0.80;;;;;;;;;;4513866;28;20038;-60
2023/02/11 10:51:49;;;;;;;0.80;0.80;;;;;;;;;;4505627;28;20072;-60
2023/02/11 10:54:02;;;;;;;0.93;0.63;;;;;;;;;;4507375;28;20517;-60
2023/02/11 10:56:25;;;;;;;1.00;0.90;;;;;;;;;;4507554;28;20096;-61
2023/02/11 10:58:39;;;;;;;0.82;0.82;;;;;;;;;;4505727;28;20041;-60
2023/02/11 11:00:51;;;;;;;0.82;0.82;;;;;;;;;;4507241;28;20173;-60
2023/02/11 11:03:03;;;;;;;1.35;0.90;;;;;;;;;;4506175;28;20128;-60
2023/02/11 11:05:15;;;;;;;0.90;0.88;;;;;;;;;;4505951;28;20301;-61
2023/02/11 11:07:27;;;;;;;1.00;0.90;;;;;;;;;;4505206;28;20030;-60
2023/02/11 11:09:49;;;;;;;1.20;1.10;;;;;;;;;;4509375;28;20233;-61
2023/02/11 11:12:00;;;;;;;0.80;0.80;;;;;;;;;;4508633;28;20030;-60
2023/02/11 11:14:17;;;;;;;0.88;0.88;;;;;;;;;;4516845;28;20037;-60
2023/02/11 11:16:28;;;;;;;0.80;0.80;;;;;;;;;;4507588;28;20054;-59
2023/02/11 11:18:43;;;;;;;0.80;0.80;;;;;;;;;;4508839;28;20833;-60
2023/02/11 11:20:56;;;;;;;0.80;0.80;;;;;;;;;;4507022;28;20038;-60
2023/02/11 11:23:25;;;;;;;1.00;0.90;;;;;;;;;;4508670;28;20069;-60
2023/02/11 11:25:37;;;;;;;1.08;0.80;;;;;;;;;;4508986;28;20037;-61
2023/02/11 11:27:51;;;;;;;1.08;0.90;;;;;;;;;;4508438;28;20029;-61
2023/02/11 11:30:02;;;;;;;0.70;0.70;;;;;;;;;;4507936;28;20128;-61
2023/02/11 11:32:24;;;;;;;1.88;1.10;;;;;;;;;;4507243;28;20660;-60
2023/02/11 11:34:40;;;;;;;1.00;0.90;;;;;;;;;;4507492;28;20042;-61
2023/02/11 11:36:51;;;;;;;1.92;0.90;;;;;;;;;;4500881;28;20060;-61
2023/02/11 11:39:09;;;;;;;2.10;0.90;;;;;;;;;;4507704;28;20041;-60
2023/02/11 11:41:22;;;;;;;1.60;0.90;;;;;;;;;;4508589;28;20033;-60
2023/02/11 11:43:33;;;;;;;1.33;0.90;;;;;;;;;;4508280;28;20141;-60
2023/02/11 11:45:54;;;;;;;1.20;1.10;;;;;;;;;;4506552;28;20048;-60
2023/02/11 11:48:25;;;;;;;0.88;0.80;;;;;;;;;;4507659;28;20614;-61
2023/02/11 11:50:46;;;;;;;0.90;0.90;;;;;;;;;;4523270;28;20200;-60
2023/02/11 11:53:04;;;;;;;1.95;0.90;;;;;;;;;;4507022;28;20046;-61
2023/02/11 11:55:19;;;;;;;0.93;0.90;;;;;;;;;;4506532;28;20136;-61
2023/02/11 11:57:31;;;;;;;1.45;0.95;;;;;;;;;;4506849;28;20037;-61
2023/02/11 11:59:41;;;;;;;2.30;0.90;;;;;;;;;;4506637;28;20137;-59
2023/02/11 12:02:06;;;;;;;1.42;1.02;;;;;;;;;;4508763;28;20037;-63
2023/02/11 12:04:17;;;;;;;2.67;1.15;;;;;;;;;;4508457;28;20045;-63
2023/02/11 12:06:42;;;;;;;3.45;1.48;;;;;;;;;;4507294;28;20045;-63
2023/02/11 12:08:55;;;;;;;4.72;1.65;;;;;;;;;;4506528;28;20037;-60
2023/02/11 12:11:21;;;;;;;4.88;1.55;;;;;;;;;;4506808;28;20045;-64
2023/02/11 12:13:49;;;;;;;2.97;1.40;;;;;;;;;;4508508;28;20561;-63
2023/02/11 12:16:09;;;;;;;5.03;1.60;;;;;;;;;;4511203;28;20037;-63
2023/02/11 12:18:41;;;;;;;5.82;1.73;;;;;;;;;;4507258;28;20046;-63
2023/02/11 12:21:04;;;;;;;5.60;1.52;;;;;;;;;;4506882;28;20037;-63
2023/02/11 12:23:20;;;;;;;4.25;1.58;;;;;;;;;;4507032;28;20631;-63
2023/02/11 12:25:35;;;;;;;6.07;2.30;;;;;;;;;;4509059;28;20250;-63
2023/02/11 12:27:45;;;;;;;8.68;2.60;;;;;;;;;;4507133;28;20045;-63
2023/02/11 12:30:14;;;;;;;7.32;3.10;;;;;;;;;;4507272;28;20044;-63
2023/02/11 12:33:00;;;;;;;10.55;3.10;;;;;;;;;;4507810;28;20038;-63
2023/02/11 12:35:25;;;;;;;12.40;3.78;;;;;;;;;;4487927;28;20037;-62
2023/02/11 12:37:49;;;;;;;12.75;3.80;;;;;;;;;;4501860;28;20122;-63
2023/02/11 12:40:14;;;;;;;13.15;3.80;;;;;;;;;;4515443;28;20116;-63
2023/02/11 12:45:13;;;;;;;12.02;3.65;;;;;;;;;;4506502;28;20037;-62
2023/02/11 12:47:23;;;;;;;8.82;3.33;;;;;;;;;;4505566;28;20058;-63
2023/02/11 12:49:36;;;;;;;8.68;3.53;;;;;;;;;;4505854;28;20505;-63
2023/02/11 12:52:25;;;;;;;10.20;3.35;;;;;;;;;;4507101;28;20046;-63
2023/02/11 12:54:35;;;;;;;;;;;;;;;;;;4469020;28;21006;-62
2023/02/11 12:56:54;;;;;;;11.10;2.90;;;;;;;;;;4470586;28;19921;-63
2023/02/11 12:59:10;;;;;;;8.00;3.15;;;;;;;;;;4482335;28;20753;-62
2023/02/11 13:01:28;;;;;;;8.85;3.20;;;;;;;;;;4501027;28;20574;-62
2023/02/11 13:03:41;;;;;;;10.27;3.30;;;;;;;;;;4500871;28;20049;-62
2023/02/11 13:05:53;;;;;;;7.78;3.08;;;;;;;;;;4504781;28;20034;-62
2023/02/11 13:08:04;;;;;;;9.32;3.33;;;;;;;;;;4505307;28;20041;-62
2023/02/11 13:10:17;;;;;;;8.90;3.15;;;;;;;;;;4505656;28;20091;-62
2023/02/11 13:15:00;;;;;;;8.82;3.17;;;;;;;;;;4506838;28;20030;-62
2023/02/11 13:17:17;;;;;;;6.88;2.67;;;;;;;;;;4505718;28;20155;-62
2023/02/11 13:19:30;;;;;;;7.88;3.00;;;;;;;;;;4512710;28;20029;-62
2023/02/11 13:21:59;;;;;;;8.10;2.85;;;;;;;;;;4505520;28;20145;-62
2023/02/11 13:24:24;;;;;;;6.68;2.88;;;;;;;;;;4508250;28;20669;-61
2023/02/11 13:26:39;;;;;;;6.20;2.78;;;;;;;;;;4505970;28;20790;-61
2023/02/11 13:29:10;;;;;;;7.72;2.90;;;;;;;;;;4505563;28;20053;-60